createdAt,value
2023-02-25T00:01:40.343Z,67.34
2023-02-25T00:04:07.525Z,67.00
2023-02-25T00:06:34.104Z,73.42
2023-02-25T00:09:01.135Z,73.17
2023-02-25T00:11:28.367Z,68.38
2023-02-25T00:13:55.542Z,66.51
2023-02-25T00:16:24.127Z,69.00
2023-02-25T00:18:55.662Z,66.54
2023-02-25T00:21:23.280Z,66.13
2023-02-25T00:23:50.788Z,71.45
2023-02-25T00:26:18.213Z,69.90
2023-02-25T00:28:45.221Z,67.25
2023-02-25T00:31:23.093Z,72.66
2023-02-25T00:33:50.993Z,71.00
2023-02-25T00:36:23.406Z,74.10
2023-02-25T00:38:51.583Z,70.61
2023-02-25T00:41:20.925Z,73.61
2023-02-25T00:43:53.147Z,73.50
2023-02-25T00:46:20.330Z,70.81
2023-02-25T00:48:47.461Z,68.18
2023-02-25T00:51:17.593Z,66.11
2023-02-25T00:53:44.917Z,65.96
2023-02-25T00:56:17.447Z,64.59
2023-02-25T00:58:45.530Z,64.81
2023-02-25T01:01:20.325Z,66.56
2023-02-25T01:03:48.822Z,66.23
2023-02-25T01:06:15.943Z,64.57
2023-02-25T01:08:43.292Z,65.82
2023-02-25T01:11:12.533Z,66.71
2023-02-25T01:13:39.248Z,65.89
2023-02-25T01:16:14.547Z,69.06
2023-02-25T01:18:41.953Z,67.37
2023-02-25T01:21:17.714Z,67.25
2023-02-25T01:23:49.171Z,66.34
2023-02-25T01:26:16.381Z,65.71
2023-02-25T01:28:43.048Z,65.02
2023-02-25T01:31:24.837Z,69.84
2023-02-25T01:33:51.908Z,72.99
2023-02-25T01:36:18.613Z,70.11
2023-02-25T01:38:45.196Z,68.24
2023-02-25T01:41:11.926Z,69.57
2023-02-25T01:43:38.592Z,67.10
2023-02-25T01:46:05.206Z,67.75
2023-02-25T01:48:36.214Z,70.08
2023-02-25T01:51:09.518Z,68.87
2023-02-25T01:53:44.320Z,67.35
2023-02-25T01:56:14.576Z,66.55
2023-02-25T01:58:41.932Z,67.41
2023-02-25T02:01:14.530Z,66.03
2023-02-25T02:03:42.607Z,65.39
2023-02-25T02:06:21.478Z,65.81
2023-02-25T02:08:49.340Z,65.22
2023-02-25T02:11:17.118Z,65.40
2023-02-25T02:13:51.070Z,66.38
2023-02-25T02:16:17.691Z,66.59
2023-02-25T02:18:50.641Z,66.19
2023-02-25T02:21:46.257Z,65.30
2023-02-25T02:24:58.903Z,65.69
2023-02-25T02:27:50.099Z,65.83
2023-02-25T02:30:50.356Z,64.60
2023-02-25T02:33:26.467Z,66.93
2023-02-25T02:36:13.226Z,65.76
2023-02-25T02:38:42.581Z,65.09
2023-02-25T02:41:50.952Z,66.19
2023-02-25T02:44:42.851Z,64.85
2023-02-25T02:47:28.050Z,65.16
2023-02-25T02:50:24.697Z,65.21
2023-02-25T02:52:56.552Z,65.46
2023-02-25T02:55:27.770Z,64.50
2023-02-25T02:58:00.795Z,64.24
2023-02-25T03:00:33.815Z,66.04
2023-02-25T03:03:16.867Z,65.36
2023-02-25T03:05:49.647Z,65.13
2023-02-25T03:08:28.540Z,64.61
2023-02-25T03:10:55.249Z,65.60
2023-02-25T03:13:22.522Z,64.57
2023-02-25T03:15:50.127Z,64.74
2023-02-25T03:18:36.124Z,70.26
2023-02-25T03:21:11.954Z,68.29
2023-02-25T03:23:43.044Z,66.62
2023-02-25T03:26:30.212Z,67.12
2023-02-25T03:28:56.945Z,68.91
2023-02-25T03:31:42.889Z,71.07
2023-02-25T03:34:12.204Z,70.70
2023-02-25T03:37:02.275Z,70.85
2023-02-25T03:39:33.407Z,69.58
2023-02-25T03:42:03.729Z,67.10
2023-02-25T03:44:37.833Z,68.67
2023-02-25T03:47:08.087Z,67.71
2023-02-25T03:49:42.039Z,66.35
2023-02-25T03:52:14.964Z,65.49
2023-02-25T03:54:41.648Z,67.74
2023-02-25T03:57:08.739Z,68.05
2023-02-25T03:59:35.446Z,66.51
2023-02-25T04:02:03.020Z,65.58
2023-02-25T04:04:29.666Z,65.20
2023-02-25T04:06:56.408Z,64.84
2023-02-25T04:09:23.186Z,64.57
2023-02-25T04:11:49.809Z,64.54
2023-02-25T04:14:18.367Z,66.75
2023-02-25T04:16:45.164Z,67.22
2023-02-25T04:19:11.757Z,66.71
2023-02-25T04:21:39.491Z,65.35
2023-02-25T04:24:11.101Z,64.55
2023-02-25T04:26:41.783Z,64.41
2023-02-25T04:29:11.996Z,64.69
2023-02-25T04:31:38.834Z,64.62
2023-02-25T04:34:05.596Z,71.51
2023-02-25T04:36:34.567Z,68.74
2023-02-25T04:39:04.486Z,66.54
2023-02-25T04:41:34.916Z,65.54
2023-02-25T04:44:04.227Z,63.99
2023-02-25T04:46:32.508Z,64.34
2023-02-25T04:48:59.610Z,68.70
2023-02-25T04:51:26.559Z,67.04
2023-02-25T04:53:53.742Z,65.61
2023-02-25T04:56:20.724Z,66.84
2023-02-25T04:58:47.438Z,65.51
2023-02-25T05:01:14.271Z,64.81
2023-02-25T05:03:41.392Z,66.90
2023-02-25T05:06:08.621Z,67.49
2023-02-25T05:08:35.970Z,67.46
2023-02-25T05:11:03.809Z,65.69
2023-02-25T05:13:30.944Z,65.73
2023-02-25T05:16:25.034Z,64.93
2023-02-25T05:18:52.616Z,64.81
2023-02-25T05:21:22.668Z,64.29
2023-02-25T05:23:51.163Z,64.47
2023-02-25T05:26:22.122Z,64.73
2023-02-25T05:28:58.384Z,64.04
2023-02-25T05:31:26.105Z,63.68
2023-02-25T05:33:53.252Z,63.66
2023-02-25T05:36:20.014Z,63.54
2023-02-25T05:38:46.723Z,64.12
2023-02-25T05:41:14.883Z,64.13
2023-02-25T05:43:41.951Z,66.05
2023-02-25T05:46:13.196Z,64.79
2023-02-25T05:48:41.938Z,65.41
2023-02-25T05:51:12.864Z,64.83
2023-02-25T05:53:39.746Z,64.45
2023-02-25T05:56:08.583Z,71.75
2023-02-25T05:58:35.498Z,71.11
2023-02-25T06:01:16.598Z,67.63
2023-02-25T06:03:45.017Z,66.66
2023-02-25T06:06:13.323Z,65.50
2023-02-25T06:08:41.910Z,64.86
2023-02-25T06:11:10.835Z,64.98
2023-02-25T06:13:37.454Z,66.96
2023-02-25T06:16:05.237Z,66.54
2023-02-25T06:18:36.741Z,66.88
2023-02-25T06:21:08.599Z,65.91
2023-02-25T06:23:36.378Z,65.37
2023-02-25T06:26:05.003Z,72.35
2023-02-25T06:28:32.936Z,70.36
2023-02-25T06:31:00.351Z,68.26
2023-02-25T06:33:29.136Z,70.87
2023-02-25T06:35:55.927Z,70.97
2023-02-25T06:38:22.704Z,67.06
2023-02-25T06:40:49.851Z,66.02
2023-02-25T06:43:17.218Z,67.64
2023-02-25T06:45:44.235Z,66.88
2023-02-25T06:48:11.026Z,66.98
2023-02-25T06:50:41.768Z,68.92
2023-02-25T06:53:08.859Z,72.77
2023-02-25T06:55:38.039Z,74.63
2023-02-25T06:58:04.630Z,71.57
2023-02-25T07:00:31.874Z,70.08
2023-02-25T07:02:58.589Z,67.46
2023-02-25T07:05:25.293Z,66.26
2023-02-25T07:07:51.911Z,67.99
2023-02-25T07:10:18.591Z,65.92
2023-02-25T07:12:45.208Z,65.08
2023-02-25T07:15:11.932Z,64.40
2023-02-25T07:17:39.770Z,64.37
2023-02-25T07:20:07.077Z,64.09
2023-02-25T07:22:33.677Z,63.27
2023-02-25T07:25:00.696Z,65.24
2023-02-25T07:27:27.376Z,65.08
2023-02-25T07:29:55.050Z,63.34
2023-02-25T07:32:24.684Z,63.30
2023-02-25T07:34:51.442Z,65.33
2023-02-25T07:37:18.022Z,63.51
2023-02-25T07:39:47.371Z,64.86
2023-02-25T07:42:14.266Z,62.90
2023-02-25T07:44:41.052Z,62.63
2023-02-25T07:47:07.691Z,63.56
2023-02-25T07:49:34.389Z,61.74
2023-02-25T07:52:00.962Z,61.91
2023-02-25T07:54:27.795Z,62.29
2023-02-25T07:56:54.423Z,62.57
2023-02-25T07:59:21.023Z,61.72
2023-02-25T08:01:47.779Z,63.52
2023-02-25T08:04:17.403Z,65.58
2023-02-25T08:06:44.087Z,63.80
2023-02-25T08:09:12.406Z,61.37
2023-02-25T08:11:40.340Z,63.41
2023-02-25T08:14:07.201Z,66.67
2023-02-25T08:16:34.042Z,63.52
2023-02-25T08:19:00.961Z,61.82
2023-02-25T08:21:27.816Z,59.98
2023-02-25T08:23:54.709Z,60.20
2023-02-25T08:26:22.776Z,61.05
2023-02-25T08:28:50.799Z,58.21
2023-02-25T08:31:18.501Z,59.55
2023-02-25T08:33:49.649Z,59.22
2023-02-25T08:36:29.059Z,58.08
2023-02-25T08:38:59.753Z,58.41
2023-02-25T08:41:28.338Z,60.90
2023-02-25T08:43:57.188Z,59.59
2023-02-25T08:46:25.403Z,58.01
2023-02-25T08:48:53.836Z,57.24
2023-02-25T08:51:22.889Z,57.88
2023-02-25T08:53:50.671Z,60.59
2023-02-25T08:56:17.924Z,57.91
2023-02-25T08:58:44.755Z,57.44
2023-02-25T09:01:15.392Z,56.70
2023-02-25T09:03:53.263Z,56.53
2023-02-25T09:06:22.522Z,58.34
2023-02-25T09:08:50.648Z,59.36
2023-02-25T09:11:17.953Z,58.86
2023-02-25T09:13:44.601Z,58.10
2023-02-25T09:16:11.890Z,57.08
2023-02-25T09:18:42.173Z,56.78
2023-02-25T09:21:10.778Z,56.80
2023-02-25T09:23:37.770Z,57.05
2023-02-25T09:26:05.873Z,56.79
2023-02-25T09:28:32.763Z,55.09
2023-02-25T09:30:59.630Z,51.50
2023-02-25T09:33:26.673Z,45.83
2023-02-25T09:35:53.324Z,46.07
2023-02-25T09:38:20.581Z,46.02
2023-02-25T09:40:49.184Z,51.32
2023-02-25T09:43:20.694Z,47.75
2023-02-25T09:45:50.908Z,52.21
2023-02-25T09:48:20.858Z,55.33
2023-02-25T09:50:53.054Z,55.68
2023-02-25T09:53:37.002Z,55.91
2023-02-25T09:56:06.897Z,57.97
2023-02-25T09:58:43.576Z,55.89
2023-02-25T10:01:10.130Z,50.19
2023-02-25T10:04:13.955Z,42.90
2023-02-25T10:06:44.448Z,41.40
2023-02-25T10:09:38.942Z,38.80
2023-02-25T10:12:20.936Z,38.82
2023-02-25T10:14:56.377Z,39.06
2023-02-25T10:17:47.171Z,39.75
2023-02-25T10:20:35.386Z,38.68
2023-02-25T10:23:27.945Z,38.72
2023-02-25T10:26:07.356Z,38.52
2023-02-25T10:28:35.857Z,38.28
2023-02-25T10:31:05.157Z,36.99
2023-02-25T10:33:36.984Z,37.15
2023-02-25T10:36:10.474Z,36.95
2023-02-25T10:38:42.220Z,36.54
2023-02-25T10:41:08.873Z,36.60
2023-02-25T10:43:35.674Z,36.97
2023-02-25T10:46:09.717Z,36.74
2023-02-25T10:48:38.252Z,36.01
2023-02-25T10:51:06.872Z,36.67
2023-02-25T10:53:34.351Z,36.62
2023-02-25T10:56:02.386Z,37.33
2023-02-25T10:58:36.625Z,37.17
2023-02-25T11:01:04.369Z,36.79
2023-02-25T11:03:33.505Z,36.37
2023-02-25T11:06:34.843Z,36.23
2023-02-25T11:09:04.397Z,36.47
2023-02-25T11:11:39.000Z,36.35
2023-02-25T11:14:15.633Z,37.02
2023-02-25T11:16:45.574Z,35.75
2023-02-25T11:19:25.354Z,35.47
2023-02-25T11:21:53.101Z,36.45
2023-02-25T11:24:31.568Z,36.35
2023-02-25T11:26:58.748Z,37.21
2023-02-25T11:29:43.473Z,36.11
2023-02-25T11:32:18.415Z,35.97
2023-02-25T11:34:50.737Z,35.96
2023-02-25T11:37:45.334Z,36.58
2023-02-25T11:40:33.925Z,37.08
2023-02-25T11:43:01.836Z,37.18
2023-02-25T11:46:03.490Z,36.78
2023-02-25T11:48:47.564Z,37.04
2023-02-25T11:51:30.452Z,37.04
2023-02-25T11:54:17.923Z,37.18
2023-02-25T11:56:51.023Z,37.02
2023-02-25T11:59:20.529Z,37.45
2023-02-25T12:02:00.189Z,37.07
2023-02-25T12:04:45.460Z,37.12
2023-02-25T12:07:30.147Z,37.20
2023-02-25T12:10:40.487Z,37.71
2023-02-25T12:13:25.480Z,37.11
2023-02-25T12:16:20.493Z,37.67
2023-02-25T12:19:17.941Z,36.91
2023-02-25T12:22:28.897Z,37.16
2023-02-25T12:25:28.456Z,37.38
2023-02-25T12:28:06.732Z,37.91
2023-02-25T12:30:35.953Z,37.74
2023-02-25T12:33:31.890Z,36.81
2023-02-25T12:36:00.465Z,37.03
2023-02-25T12:38:41.425Z,37.94
2023-02-25T12:41:15.619Z,37.67
2023-02-25T12:43:54.368Z,37.07
2023-02-25T12:46:45.561Z,37.15
2023-02-25T12:49:49.643Z,37.37
2023-02-25T12:52:27.912Z,37.26
2023-02-25T12:55:00.185Z,37.43
2023-02-25T12:57:39.565Z,37.37
2023-02-25T13:00:37.201Z,37.37
2023-02-25T13:03:27.282Z,37.48
2023-02-25T13:06:23.264Z,37.23
2023-02-25T13:08:53.262Z,37.68
2023-02-25T13:12:11.389Z,37.14
2023-02-25T13:14:38.534Z,37.28
2023-02-25T13:17:20.669Z,36.64
2023-02-25T13:20:06.157Z,36.69
2023-02-25T13:22:53.938Z,36.73
2023-02-25T13:25:47.914Z,36.04
2023-02-25T13:28:25.803Z,35.99
2023-02-25T13:31:19.389Z,36.76
2023-02-25T13:34:11.712Z,35.65
2023-02-25T13:37:18.674Z,35.29
2023-02-25T13:39:45.389Z,34.82
2023-02-25T13:42:34.978Z,34.90
2023-02-25T13:45:35.390Z,35.73
2023-02-25T13:48:25.995Z,34.77
2023-02-25T13:50:56.856Z,35.30
2023-02-25T13:53:32.732Z,35.44
2023-02-25T13:56:20.624Z,35.63
2023-02-25T13:59:23.113Z,35.78
2023-02-25T14:02:14.926Z,36.92
2023-02-25T14:05:03.942Z,37.12
2023-02-25T14:07:33.363Z,36.25
2023-02-25T14:10:21.541Z,36.00
2023-02-25T14:13:10.120Z,36.82
2023-02-25T14:16:00.782Z,36.47
2023-02-25T14:18:55.495Z,36.06
2023-02-25T14:21:55.595Z,36.29
2023-02-25T14:24:54.032Z,35.57
2023-02-25T14:27:26.672Z,36.52
2023-02-25T14:30:08.388Z,37.14
2023-02-25T14:33:26.499Z,36.48
2023-02-25T14:36:06.824Z,36.36
2023-02-25T14:39:03.196Z,36.25
2023-02-25T14:41:36.101Z,36.45
2023-02-25T14:44:11.030Z,36.22
2023-02-25T14:46:53.014Z,36.77
2023-02-25T14:49:42.845Z,37.72
2023-02-25T14:52:40.001Z,38.38
2023-02-25T14:55:27.628Z,38.27
2023-02-25T14:58:16.810Z,38.21
2023-02-25T15:00:55.095Z,37.83
2023-02-25T15:03:59.150Z,38.89
2023-02-25T15:06:46.747Z,37.99
2023-02-25T15:09:50.784Z,38.81
2023-02-25T15:12:41.350Z,39.02
2023-02-25T15:15:45.566Z,38.61
2023-02-25T15:18:19.607Z,39.38
2023-02-25T15:20:46.857Z,38.87
2023-02-25T15:23:19.818Z,39.17
2023-02-25T15:25:50.376Z,39.09
2023-02-25T15:28:29.241Z,39.28
2023-02-25T15:31:02.270Z,39.06
2023-02-25T15:33:43.116Z,39.39
2023-02-25T15:36:15.772Z,38.73
2023-02-25T15:38:50.617Z,39.37
2023-02-25T15:41:29.366Z,39.00
2023-02-25T15:44:19.996Z,39.10
2023-02-25T15:46:48.604Z,39.41
2023-02-25T15:49:22.494Z,39.32
2023-02-25T15:51:58.895Z,38.96
2023-02-25T15:54:28.731Z,38.93
2023-02-25T15:57:04.981Z,38.72
2023-02-25T15:59:55.368Z,39.25
2023-02-25T16:02:30.694Z,38.97
2023-02-25T16:05:18.703Z,39.19
2023-02-25T16:07:49.778Z,39.17
2023-02-25T16:10:19.304Z,39.41
2023-02-25T16:12:53.045Z,39.89
2023-02-25T16:15:39.572Z,38.62
2023-02-25T16:18:21.912Z,38.68
2023-02-25T16:20:53.273Z,38.87
2023-02-25T16:23:20.626Z,40.38
2023-02-25T16:26:05.746Z,39.70
2023-02-25T16:28:45.882Z,39.30
2023-02-25T16:31:24.697Z,39.53
2023-02-25T16:33:51.431Z,40.22
2023-02-25T16:36:19.048Z,39.64
2023-02-25T16:39:10.189Z,40.03
2023-02-25T16:41:39.008Z,40.05
2023-02-25T16:44:07.490Z,40.24
2023-02-25T16:46:37.799Z,40.32
2023-02-25T16:49:11.203Z,40.34
2023-02-25T16:51:41.431Z,39.25
2023-02-25T16:54:21.122Z,39.51
2023-02-25T16:56:52.943Z,39.67
2023-02-25T16:59:21.801Z,39.91
2023-02-25T17:02:01.944Z,39.35
2023-02-25T17:04:37.752Z,39.39
2023-02-25T17:07:24.480Z,40.13
2023-02-25T17:09:53.917Z,40.83
2023-02-25T17:12:36.991Z,40.50
2023-02-25T17:15:13.668Z,40.40
2023-02-25T17:17:43.166Z,40.16
2023-02-25T17:20:24.387Z,40.78
2023-02-25T17:22:52.552Z,40.84
2023-02-25T17:25:20.870Z,40.99
2023-02-25T17:27:50.008Z,40.31
2023-02-25T17:30:36.196Z,40.52
2023-02-25T17:33:03.943Z,40.89
2023-02-25T17:35:31.352Z,40.36
2023-02-25T17:37:58.506Z,39.40
2023-02-25T17:40:29.159Z,39.50
2023-02-25T17:43:14.139Z,40.24
2023-02-25T17:46:02.786Z,40.65
2023-02-25T17:48:33.854Z,41.12
2023-02-25T17:51:06.148Z,41.43
2023-02-25T17:53:47.279Z,41.29
2023-02-25T17:56:30.208Z,41.11
2023-02-25T17:59:06.760Z,40.95
2023-02-25T18:02:30.038Z,41.03
2023-02-25T18:05:11.989Z,40.95
2023-02-25T18:07:58.629Z,42.37
2023-02-25T18:10:30.965Z,42.04
2023-02-25T18:12:59.439Z,41.29
2023-02-25T18:15:30.975Z,42.02
2023-02-25T18:18:04.088Z,42.13
2023-02-25T18:20:35.493Z,42.19
2023-02-25T18:23:09.573Z,41.48
2023-02-25T18:25:42.318Z,42.10
2023-02-25T18:28:17.509Z,42.52
2023-02-25T18:30:46.120Z,42.84
2023-02-25T18:33:13.330Z,43.00
2023-02-25T18:35:42.123Z,43.21
2023-02-25T18:38:17.012Z,43.31
2023-02-25T18:40:43.717Z,43.00
2023-02-25T18:43:17.063Z,42.89
2023-02-25T18:45:44.379Z,43.41
2023-02-25T18:48:11.475Z,43.10
2023-02-25T18:50:40.553Z,42.53
2023-02-25T18:53:11.389Z,43.74
2023-02-25T18:55:38.248Z,43.45
2023-02-25T18:58:05.034Z,43.61
2023-02-25T19:00:32.026Z,42.97
2023-02-25T19:03:03.412Z,42.64
2023-02-25T19:05:30.514Z,43.10
2023-02-25T19:07:57.566Z,42.83
2023-02-25T19:10:27.448Z,42.67
2023-02-25T19:13:03.444Z,42.96
2023-02-25T19:15:30.743Z,43.22
2023-02-25T19:17:57.408Z,41.89
2023-02-25T19:20:25.647Z,42.12
2023-02-25T19:22:53.650Z,42.70
2023-02-25T19:25:23.884Z,41.92
2023-02-25T19:27:52.029Z,41.59
2023-02-25T19:30:21.780Z,42.26
2023-02-25T19:32:48.700Z,41.88
2023-02-25T19:35:15.577Z,41.85
2023-02-25T19:37:43.496Z,42.83
2023-02-25T19:40:13.891Z,42.81
2023-02-25T19:42:42.040Z,43.41
2023-02-25T19:45:11.944Z,42.65
2023-02-25T19:47:38.615Z,42.22
2023-02-25T19:50:06.257Z,42.85
2023-02-25T19:52:41.447Z,42.33
2023-02-25T19:55:09.001Z,40.73
2023-02-25T19:57:38.464Z,42.93
2023-02-25T20:00:16.957Z,42.10
2023-02-25T20:02:43.782Z,43.18
2023-02-25T20:05:11.376Z,43.19
2023-02-25T20:07:38.223Z,44.06
2023-02-25T20:10:06.661Z,43.23
2023-02-25T20:12:33.405Z,42.77
2023-02-25T20:15:00.112Z,42.46
2023-02-25T20:17:26.836Z,43.34
2023-02-25T20:19:53.471Z,42.35
2023-02-25T20:22:23.960Z,41.04
2023-02-25T20:24:51.301Z,44.34
2023-02-25T20:27:18.266Z,43.03
2023-02-25T20:29:45.095Z,43.99
2023-02-25T20:32:11.924Z,43.04
2023-02-25T20:34:39.034Z,43.04
2023-02-25T20:37:12.439Z,43.36
2023-02-25T20:39:39.014Z,42.98
2023-02-25T20:42:15.288Z,42.95
2023-02-25T20:44:42.202Z,43.07
2023-02-25T20:47:16.676Z,42.93
2023-02-25T20:49:43.413Z,41.66
2023-02-25T20:52:13.666Z,41.90
2023-02-25T20:54:40.447Z,41.06
2023-02-25T20:57:08.946Z,41.30
2023-02-25T20:59:35.572Z,41.47
2023-02-25T21:02:02.241Z,41.06
2023-02-25T21:04:28.887Z,42.20
2023-02-25T21:06:55.544Z,40.37
2023-02-25T21:09:22.272Z,40.12
2023-02-25T21:11:48.851Z,40.31
2023-02-25T21:14:15.718Z,39.08
2023-02-25T21:16:42.569Z,39.74
2023-02-25T21:19:09.310Z,39.77
2023-02-25T21:21:39.775Z,39.62
2023-02-25T21:24:10.361Z,39.91
2023-02-25T21:26:39.380Z,38.61
2023-02-25T21:29:06.889Z,37.75
2023-02-25T21:31:34.102Z,36.68
2023-02-25T21:34:02.133Z,35.88
2023-02-25T21:36:29.405Z,37.45
2023-02-25T21:38:56.221Z,36.94
2023-02-25T21:41:23.146Z,38.00
2023-02-25T21:43:52.446Z,37.66
2023-02-25T21:46:19.549Z,36.70
2023-02-25T21:48:47.459Z,36.22
2023-02-25T21:51:16.859Z,36.35
2023-02-25T21:53:43.553Z,36.23
2023-02-25T21:56:13.640Z,36.87
2023-02-25T21:58:40.298Z,36.79
2023-02-25T22:01:30.520Z,36.69
2023-02-25T22:03:57.670Z,36.61
2023-02-25T22:06:26.509Z,36.17
2023-02-25T22:08:54.087Z,36.35
2023-02-25T22:11:29.597Z,37.52
2023-02-25T22:13:57.884Z,37.07
2023-02-25T22:16:24.932Z,37.26
2023-02-25T22:18:52.406Z,37.50
2023-02-25T22:21:30.302Z,36.60
2023-02-25T22:24:02.140Z,36.13
2023-02-25T22:26:31.714Z,35.63
2023-02-25T22:29:04.819Z,36.80
2023-02-25T22:31:32.858Z,37.08
2023-02-25T22:34:00.718Z,37.05
2023-02-25T22:36:27.853Z,38.06
2023-02-25T22:38:55.846Z,39.13
2023-02-25T22:41:28.268Z,38.21
2023-02-25T22:43:55.659Z,38.31
2023-02-25T22:46:28.084Z,37.88
2023-02-25T22:48:55.412Z,38.39
2023-02-25T22:51:26.915Z,38.17
2023-02-25T22:53:55.104Z,38.34
2023-02-25T22:56:22.478Z,38.69
2023-02-25T22:58:49.409Z,39.35
2023-02-25T23:01:19.311Z,38.54
2023-02-25T23:03:47.831Z,39.06
2023-02-25T23:06:16.636Z,38.60
2023-02-25T23:08:44.033Z,37.06
2023-02-25T23:11:11.720Z,38.21
2023-02-25T23:13:46.029Z,38.25
2023-02-25T23:16:17.593Z,38.49
2023-02-25T23:18:45.622Z,37.88
2023-02-25T23:21:19.034Z,38.02
2023-02-25T23:23:51.407Z,38.53
2023-02-25T23:26:21.535Z,38.49
2023-02-25T23:28:48.798Z,38.12
2023-02-25T23:31:26.923Z,39.03
2023-02-25T23:33:58.529Z,39.18
2023-02-25T23:36:27.066Z,38.69
2023-02-25T23:38:58.594Z,38.39
2023-02-25T23:41:26.459Z,39.07
2023-02-25T23:43:54.665Z,39.54
2023-02-25T23:46:22.128Z,38.95
2023-02-25T23:48:49.143Z,38.41
2023-02-25T23:51:15.906Z,37.20
2023-02-25T23:53:42.587Z,38.40
2023-02-25T23:56:11.413Z,38.91
2023-02-25T23:58:38.244Z,37.26
